sensor_id;sensor_type;location;lat;lon;timestamp;temperature;humidity
2751;DHT22;1383;48.362;10.908;2023-08-21T00:02:06;25.90;49.30
2751;DHT22;1383;48.362;10.908;2023-08-21T00:04:33;25.90;49.30
2751;DHT22;1383;48.362;10.908;2023-08-21T00:07:00;25.90;49.40
2751;DHT22;1383;48.362;10.908;2023-08-21T00:09:27;25.90;49.60
2751;DHT22;1383;48.362;10.908;2023-08-21T00:11:54;25.90;49.70
2751;DHT22;1383;48.362;10.908;2023-08-21T00:14:21;25.90;49.70
2751;DHT22;1383;48.362;10.908;2023-08-21T00:16:47;25.90;49.60
2751;DHT22;1383;48.362;10.908;2023-08-21T00:19:14;25.80;50.00
2751;DHT22;1383;48.362;10.908;2023-08-21T00:21:41;25.70;50.60
2751;DHT22;1383;48.362;10.908;2023-08-21T00:24:09;25.60;51.30
2751;DHT22;1383;48.362;10.908;2023-08-21T00:26:35;25.60;52.00
2751;DHT22;1383;48.362;10.908;2023-08-21T00:29:02;25.60;51.50
2751;DHT22;1383;48.362;10.908;2023-08-21T00:31:29;25.50;51.60
2751;DHT22;1383;48.362;10.908;2023-08-21T00:33:56;25.50;51.80
2751;DHT22;1383;48.362;10.908;2023-08-21T00:36:23;25.50;52.10
2751;DHT22;1383;48.362;10.908;2023-08-21T00:38:50;25.50;52.30
2751;DHT22;1383;48.362;10.908;2023-08-21T00:41:17;25.50;52.30
2751;DHT22;1383;48.362;10.908;2023-08-21T00:43:45;25.50;52.30
2751;DHT22;1383;48.362;10.908;2023-08-21T00:46:13;25.50;52.30
2751;DHT22;1383;48.362;10.908;2023-08-21T00:48:40;25.50;52.30
2751;DHT22;1383;48.362;10.908;2023-08-21T00:51:07;25.40;52.50
2751;DHT22;1383;48.362;10.908;2023-08-21T00:53:35;25.40;52.60
2751;DHT22;1383;48.362;10.908;2023-08-21T00:56:02;25.40;52.90
2751;DHT22;1383;48.362;10.908;2023-08-21T00:58:29;25.30;53.60
2751;DHT22;1383;48.362;10.908;2023-08-21T01:00:56;25.10;54.60
2751;DHT22;1383;48.362;10.908;2023-08-21T01:03:24;24.90;56.00
2751;DHT22;1383;48.362;10.908;2023-08-21T01:05:51;24.70;56.70
2751;DHT22;1383;48.362;10.908;2023-08-21T01:08:56;24.70;57.20
2751;DHT22;1383;48.362;10.908;2023-08-21T01:11:30;24.60;57.10
2751;DHT22;1383;48.362;10.908;2023-08-21T01:14:31;24.60;57.50
2751;DHT22;1383;48.362;10.908;2023-08-21T01:17:00;24.50;57.80
2751;DHT22;1383;48.362;10.908;2023-08-21T01:19:36;24.50;58.10
2751;DHT22;1383;48.362;10.908;2023-08-21T01:22:04;24.40;58.70
2751;DHT22;1383;48.362;10.908;2023-08-21T01:24:31;24.40;58.90
2751;DHT22;1383;48.362;10.908;2023-08-21T01:26:58;24.30;59.20
2751;DHT22;1383;48.362;10.908;2023-08-21T01:29:25;24.20;59.70
2751;DHT22;1383;48.362;10.908;2023-08-21T01:32:03;24.20;59.80
2751;DHT22;1383;48.362;10.908;2023-08-21T01:34:33;24.20;60.00
2751;DHT22;1383;48.362;10.908;2023-08-21T01:37:01;24.20;60.20
2751;DHT22;1383;48.362;10.908;2023-08-21T01:39:28;24.10;60.60
2751;DHT22;1383;48.362;10.908;2023-08-21T01:41:56;24.10;61.10
2751;DHT22;1383;48.362;10.908;2023-08-21T01:44:23;24.10;61.50
2751;DHT22;1383;48.362;10.908;2023-08-21T01:46:50;24.00;61.70
2751;DHT22;1383;48.362;10.908;2023-08-21T01:49:17;23.90;62.20
2751;DHT22;1383;48.362;10.908;2023-08-21T01:51:46;23.90;62.50
2751;DHT22;1383;48.362;10.908;2023-08-21T01:54:13;23.90;62.70
2751;DHT22;1383;48.362;10.908;2023-08-21T01:56:40;23.90;62.80
2751;DHT22;1383;48.362;10.908;2023-08-21T01:59:07;23.90;62.70
2751;DHT22;1383;48.362;10.908;2023-08-21T02:01:34;23.90;63.10
2751;DHT22;1383;48.362;10.908;2023-08-21T02:04:01;23.90;63.20
2751;DHT22;1383;48.362;10.908;2023-08-21T02:06:28;23.80;63.70
2751;DHT22;1383;48.362;10.908;2023-08-21T02:08:54;23.80;63.70
2751;DHT22;1383;48.362;10.908;2023-08-21T02:11:21;23.70;64.00
2751;DHT22;1383;48.362;10.908;2023-08-21T02:13:48;23.60;64.40
2751;DHT22;1383;48.362;10.908;2023-08-21T02:16:15;23.50;65.10
2751;DHT22;1383;48.362;10.908;2023-08-21T02:18:42;23.50;66.50
2751;DHT22;1383;48.362;10.908;2023-08-21T02:21:09;23.40;66.00
2751;DHT22;1383;48.362;10.908;2023-08-21T02:23:35;23.40;66.60
2751;DHT22;1383;48.362;10.908;2023-08-21T02:26:02;23.30;66.60
2751;DHT22;1383;48.362;10.908;2023-08-21T02:28:29;23.30;66.80
2751;DHT22;1383;48.362;10.908;2023-08-21T02:30:56;23.30;66.90
2751;DHT22;1383;48.362;10.908;2023-08-21T02:33:23;23.20;67.50
2751;DHT22;1383;48.362;10.908;2023-08-21T02:35:50;23.20;67.30
2751;DHT22;1383;48.362;10.908;2023-08-21T02:38:18;23.20;67.30
2751;DHT22;1383;48.362;10.908;2023-08-21T02:40:44;23.20;67.50
2751;DHT22;1383;48.362;10.908;2023-08-21T02:43:11;23.10;67.50
2751;DHT22;1383;48.362;10.908;2023-08-21T02:45:38;23.20;67.20
2751;DHT22;1383;48.362;10.908;2023-08-21T02:48:05;23.10;67.00
2751;DHT22;1383;48.362;10.908;2023-08-21T02:50:32;23.00;67.20
2751;DHT22;1383;48.362;10.908;2023-08-21T02:52:59;22.90;67.70
2751;DHT22;1383;48.362;10.908;2023-08-21T02:55:26;23.00;68.50
2751;DHT22;1383;48.362;10.908;2023-08-21T02:57:53;23.00;68.50
2751;DHT22;1383;48.362;10.908;2023-08-21T03:00:20;23.00;68.50
2751;DHT22;1383;48.362;10.908;2023-08-21T03:02:46;23.00;68.70
2751;DHT22;1383;48.362;10.908;2023-08-21T03:05:14;23.00;68.50
2751;DHT22;1383;48.362;10.908;2023-08-21T03:07:41;23.00;68.50
2751;DHT22;1383;48.362;10.908;2023-08-21T03:10:08;23.00;68.60
2751;DHT22;1383;48.362;10.908;2023-08-21T03:12:35;23.00;68.40
2751;DHT22;1383;48.362;10.908;2023-08-21T03:15:03;23.00;68.10
2751;DHT22;1383;48.362;10.908;2023-08-21T03:17:30;23.00;68.50
2751;DHT22;1383;48.362;10.908;2023-08-21T03:19:57;22.90;68.60
2751;DHT22;1383;48.362;10.908;2023-08-21T03:22:24;22.90;69.20
2751;DHT22;1383;48.362;10.908;2023-08-21T03:24:51;22.90;69.00
2751;DHT22;1383;48.362;10.908;2023-08-21T03:27:18;22.90;69.00
2751;DHT22;1383;48.362;10.908;2023-08-21T03:29:45;22.80;69.70
2751;DHT22;1383;48.362;10.908;2023-08-21T03:32:16;22.80;70.50
2751;DHT22;1383;48.362;10.908;2023-08-21T03:34:44;22.80;70.10
2751;DHT22;1383;48.362;10.908;2023-08-21T03:37:11;22.80;70.00
2751;DHT22;1383;48.362;10.908;2023-08-21T03:39:38;22.70;70.00
2751;DHT22;1383;48.362;10.908;2023-08-21T03:42:05;22.70;70.40
2751;DHT22;1383;48.362;10.908;2023-08-21T03:44:32;22.70;70.40
2751;DHT22;1383;48.362;10.908;2023-08-21T03:47:00;22.60;70.30
2751;DHT22;1383;48.362;10.908;2023-08-21T03:49:27;22.60;70.60
2751;DHT22;1383;48.362;10.908;2023-08-21T03:51:54;22.60;70.70
2751;DHT22;1383;48.362;10.908;2023-08-21T03:54:20;22.60;71.00
2751;DHT22;1383;48.362;10.908;2023-08-21T03:56:47;22.50;71.10
2751;DHT22;1383;48.362;10.908;2023-08-21T03:59:14;22.50;71.40
2751;DHT22;1383;48.362;10.908;2023-08-21T04:01:41;22.50;72.30
2751;DHT22;1383;48.362;10.908;2023-08-21T04:04:08;22.40;71.20
2751;DHT22;1383;48.362;10.908;2023-08-21T04:06:35;22.50;71.50
2751;DHT22;1383;48.362;10.908;2023-08-21T04:09:02;22.30;71.70
2751;DHT22;1383;48.362;10.908;2023-08-21T04:11:33;22.30;72.20
2751;DHT22;1383;48.362;10.908;2023-08-21T04:14:00;22.20;73.00
2751;DHT22;1383;48.362;10.908;2023-08-21T04:16:27;22.20;73.10
2751;DHT22;1383;48.362;10.908;2023-08-21T04:18:55;22.20;73.10
2751;DHT22;1383;48.362;10.908;2023-08-21T04:21:22;22.20;73.20
2751;DHT22;1383;48.362;10.908;2023-08-21T04:23:50;22.20;73.50
2751;DHT22;1383;48.362;10.908;2023-08-21T04:26:17;22.20;73.50
2751;DHT22;1383;48.362;10.908;2023-08-21T04:28:46;22.20;73.60
2751;DHT22;1383;48.362;10.908;2023-08-21T04:31:13;22.20;73.90
2751;DHT22;1383;48.362;10.908;2023-08-21T04:33:41;22.30;73.40
2751;DHT22;1383;48.362;10.908;2023-08-21T04:36:08;22.30;72.90
2751;DHT22;1383;48.362;10.908;2023-08-21T04:38:40;22.40;72.50
2751;DHT22;1383;48.362;10.908;2023-08-21T04:41:07;22.30;72.40
2751;DHT22;1383;48.362;10.908;2023-08-21T04:43:35;22.30;72.70
2751;DHT22;1383;48.362;10.908;2023-08-21T04:46:02;22.30;72.90
2751;DHT22;1383;48.362;10.908;2023-08-21T04:48:29;22.30;72.70
2751;DHT22;1383;48.362;10.908;2023-08-21T04:50:56;22.40;72.30
2751;DHT22;1383;48.362;10.908;2023-08-21T04:53:23;22.40;71.70
2751;DHT22;1383;48.362;10.908;2023-08-21T04:55:49;22.40;71.90
2751;DHT22;1383;48.362;10.908;2023-08-21T04:58:16;22.40;71.70
2751;DHT22;1383;48.362;10.908;2023-08-21T05:00:46;22.40;71.70
2751;DHT22;1383;48.362;10.908;2023-08-21T05:03:13;22.40;71.90
2751;DHT22;1383;48.362;10.908;2023-08-21T05:05:40;22.40;72.00
2751;DHT22;1383;48.362;10.908;2023-08-21T05:08:07;22.40;71.70
2751;DHT22;1383;48.362;10.908;2023-08-21T05:10:34;22.40;72.10
2751;DHT22;1383;48.362;10.908;2023-08-21T05:13:04;22.40;72.00
2751;DHT22;1383;48.362;10.908;2023-08-21T05:15:30;22.50;71.40
2751;DHT22;1383;48.362;10.908;2023-08-21T05:17:57;22.50;70.50
2751;DHT22;1383;48.362;10.908;2023-08-21T05:20:24;22.60;69.60
2751;DHT22;1383;48.362;10.908;2023-08-21T05:22:51;22.60;69.70
2751;DHT22;1383;48.362;10.908;2023-08-21T05:25:18;22.70;69.20
2751;DHT22;1383;48.362;10.908;2023-08-21T05:27:45;22.80;69.50
2751;DHT22;1383;48.362;10.908;2023-08-21T05:30:12;22.90;68.40
2751;DHT22;1383;48.362;10.908;2023-08-21T05:32:40;23.00;67.30
2751;DHT22;1383;48.362;10.908;2023-08-21T05:35:07;23.10;66.70
2751;DHT22;1383;48.362;10.908;2023-08-21T05:37:35;23.10;66.10
2751;DHT22;1383;48.362;10.908;2023-08-21T05:40:02;23.20;66.00
2751;DHT22;1383;48.362;10.908;2023-08-21T05:46:18;23.40;64.80
2751;DHT22;1383;48.362;10.908;2023-08-21T05:48:45;23.40;64.40
2751;DHT22;1383;48.362;10.908;2023-08-21T05:51:12;23.40;63.90
2751;DHT22;1383;48.362;10.908;2023-08-21T05:53:41;23.50;63.60
2751;DHT22;1383;48.362;10.908;2023-08-21T05:56:08;23.70;62.90
2751;DHT22;1383;48.362;10.908;2023-08-21T05:58:35;23.90;62.00
2751;DHT22;1383;48.362;10.908;2023-08-21T06:01:06;24.00;60.60
2751;DHT22;1383;48.362;10.908;2023-08-21T06:03:33;24.20;59.60
2751;DHT22;1383;48.362;10.908;2023-08-21T06:06:00;24.40;58.90
2751;DHT22;1383;48.362;10.908;2023-08-21T06:08:26;24.60;58.20
2751;DHT22;1383;48.362;10.908;2023-08-21T06:10:53;24.90;57.20
2751;DHT22;1383;48.362;10.908;2023-08-21T06:13:20;25.20;56.00
2751;DHT22;1383;48.362;10.908;2023-08-21T06:15:48;25.50;54.90
2751;DHT22;1383;48.362;10.908;2023-08-21T06:18:15;25.80;53.10
2751;DHT22;1383;48.362;10.908;2023-08-21T06:20:42;26.10;52.70
2751;DHT22;1383;48.362;10.908;2023-08-21T06:23:11;26.50;50.70
2751;DHT22;1383;48.362;10.908;2023-08-21T06:25:38;26.80;49.70
2751;DHT22;1383;48.362;10.908;2023-08-21T06:28:05;27.00;48.70
2751;DHT22;1383;48.362;10.908;2023-08-21T06:30:32;27.30;47.00
2751;DHT22;1383;48.362;10.908;2023-08-21T06:32:59;27.60;46.20
2751;DHT22;1383;48.362;10.908;2023-08-21T06:35:28;27.90;44.60
2751;DHT22;1383;48.362;10.908;2023-08-21T06:37:55;28.20;44.10
2751;DHT22;1383;48.362;10.908;2023-08-21T06:40:22;28.60;42.20
2751;DHT22;1383;48.362;10.908;2023-08-21T06:42:49;28.80;41.00
2751;DHT22;1383;48.362;10.908;2023-08-21T06:45:17;29.00;40.50
2751;DHT22;1383;48.362;10.908;2023-08-21T06:47:44;29.30;39.00
2751;DHT22;1383;48.362;10.908;2023-08-21T06:50:11;29.40;37.70
2751;DHT22;1383;48.362;10.908;2023-08-21T06:52:39;29.50;37.00
2751;DHT22;1383;48.362;10.908;2023-08-21T06:55:06;29.70;36.40
2751;DHT22;1383;48.362;10.908;2023-08-21T06:57:33;29.70;36.70
2751;DHT22;1383;48.362;10.908;2023-08-21T07:00:00;29.80;36.30
2751;DHT22;1383;48.362;10.908;2023-08-21T07:02:27;30.10;36.30
2751;DHT22;1383;48.362;10.908;2023-08-21T07:04:54;30.30;35.20
2751;DHT22;1383;48.362;10.908;2023-08-21T07:07:21;30.60;34.60
2751;DHT22;1383;48.362;10.908;2023-08-21T07:09:50;31.00;33.70
2751;DHT22;1383;48.362;10.908;2023-08-21T07:12:17;31.30;32.00
2751;DHT22;1383;48.362;10.908;2023-08-21T07:14:43;31.50;31.40
2751;DHT22;1383;48.362;10.908;2023-08-21T07:17:10;31.50;31.20
2751;DHT22;1383;48.362;10.908;2023-08-21T07:19:37;31.60;31.20
2751;DHT22;1383;48.362;10.908;2023-08-21T07:22:04;31.60;30.00
2751;DHT22;1383;48.362;10.908;2023-08-21T07:24:31;31.70;29.60
2751;DHT22;1383;48.362;10.908;2023-08-21T07:26:58;31.80;29.80
2751;DHT22;1383;48.362;10.908;2023-08-21T07:29:25;31.80;29.40
2751;DHT22;1383;48.362;10.908;2023-08-21T07:31:52;32.00;29.20
2751;DHT22;1383;48.362;10.908;2023-08-21T07:34:19;32.10;29.50
2751;DHT22;1383;48.362;10.908;2023-08-21T07:36:46;32.40;28.70
2751;DHT22;1383;48.362;10.908;2023-08-21T07:39:13;32.50;28.40
2751;DHT22;1383;48.362;10.908;2023-08-21T07:41:39;32.60;28.10
2751;DHT22;1383;48.362;10.908;2023-08-21T07:44:06;32.70;27.80
2751;DHT22;1383;48.362;10.908;2023-08-21T07:46:33;33.00;27.10
2751;DHT22;1383;48.362;10.908;2023-08-21T07:49:00;32.90;26.90
2751;DHT22;1383;48.362;10.908;2023-08-21T07:51:27;32.90;26.80
2751;DHT22;1383;48.362;10.908;2023-08-21T07:53:54;33.10;26.20
2751;DHT22;1383;48.362;10.908;2023-08-21T07:56:21;33.20;26.40
2751;DHT22;1383;48.362;10.908;2023-08-21T07:58:48;33.60;26.20
2751;DHT22;1383;48.362;10.908;2023-08-21T08:01:15;33.70;26.70
2751;DHT22;1383;48.362;10.908;2023-08-21T08:03:42;33.80;26.00
2751;DHT22;1383;48.362;10.908;2023-08-21T08:06:08;33.90;25.80
2751;DHT22;1383;48.362;10.908;2023-08-21T08:08:35;34.10;25.90
2751;DHT22;1383;48.362;10.908;2023-08-21T08:11:03;34.30;25.10
2751;DHT22;1383;48.362;10.908;2023-08-21T08:13:31;34.30;25.10
2751;DHT22;1383;48.362;10.908;2023-08-21T08:15:58;34.30;24.80
2751;DHT22;1383;48.362;10.908;2023-08-21T08:18:25;34.30;25.10
2751;DHT22;1383;48.362;10.908;2023-08-21T08:20:52;34.50;24.70
2751;DHT22;1383;48.362;10.908;2023-08-21T08:23:20;34.60;24.60
2751;DHT22;1383;48.362;10.908;2023-08-21T08:25:50;34.80;24.40
2751;DHT22;1383;48.362;10.908;2023-08-21T08:28:17;34.80;24.50
2751;DHT22;1383;48.362;10.908;2023-08-21T08:30:45;34.90;24.60
2751;DHT22;1383;48.362;10.908;2023-08-21T08:33:12;35.00;24.60
2751;DHT22;1383;48.362;10.908;2023-08-21T08:35:42;35.00;24.50
2751;DHT22;1383;48.362;10.908;2023-08-21T08:38:09;34.90;24.00
2751;DHT22;1383;48.362;10.908;2023-08-21T08:40:42;35.00;24.00
2751;DHT22;1383;48.362;10.908;2023-08-21T08:43:13;35.30;23.80
2751;DHT22;1383;48.362;10.908;2023-08-21T08:45:41;35.50;23.70
2751;DHT22;1383;48.362;10.908;2023-08-21T08:48:08;35.80;23.80
2751;DHT22;1383;48.362;10.908;2023-08-21T08:50:37;35.80;23.00
2751;DHT22;1383;48.362;10.908;2023-08-21T08:53:06;35.50;23.40
2751;DHT22;1383;48.362;10.908;2023-08-21T11:09:36;34.20;22.00
2751;DHT22;1383;48.362;10.908;2023-08-21T11:12:13;33.70;22.30
2751;DHT22;1383;48.362;10.908;2023-08-21T11:14:41;33.50;22.70
2751;DHT22;1383;48.362;10.908;2023-08-21T11:17:09;33.60;22.50
2751;DHT22;1383;48.362;10.908;2023-08-21T11:19:37;33.50;22.20
2751;DHT22;1383;48.362;10.908;2023-08-21T11:22:04;33.30;23.00
2751;DHT22;1383;48.362;10.908;2023-08-21T11:27:09;32.90;23.60
2751;DHT22;1383;48.362;10.908;2023-08-21T11:29:42;32.90;23.50
2751;DHT22;1383;48.362;10.908;2023-08-21T11:32:16;32.70;24.00
2751;DHT22;1383;48.362;10.908;2023-08-21T11:34:49;32.60;23.90
2751;DHT22;1383;48.362;10.908;2023-08-21T11:37:17;32.60;22.80
2751;DHT22;1383;48.362;10.908;2023-08-21T11:39:56;32.50;23.90
2751;DHT22;1383;48.362;10.908;2023-08-21T11:42:30;32.60;23.40
2751;DHT22;1383;48.362;10.908;2023-08-21T11:44:59;32.60;23.60
2751;DHT22;1383;48.362;10.908;2023-08-21T11:47:34;32.60;23.80
2751;DHT22;1383;48.362;10.908;2023-08-21T11:50:03;32.50;24.20
2751;DHT22;1383;48.362;10.908;2023-08-21T11:52:31;32.40;24.20
2751;DHT22;1383;48.362;10.908;2023-08-21T11:54:58;32.30;24.50
2751;DHT22;1383;48.362;10.908;2023-08-21T11:57:25;32.20;24.20
2751;DHT22;1383;48.362;10.908;2023-08-21T11:59:55;32.20;24.30
2751;DHT22;1383;48.362;10.908;2023-08-21T12:02:24;32.20;24.50
2751;DHT22;1383;48.362;10.908;2023-08-21T12:04:52;32.30;24.10
2751;DHT22;1383;48.362;10.908;2023-08-21T12:07:20;32.30;23.70
2751;DHT22;1383;48.362;10.908;2023-08-21T12:09:50;32.20;24.00
2751;DHT22;1383;48.362;10.908;2023-08-21T12:12:17;32.30;24.70
2751;DHT22;1383;48.362;10.908;2023-08-21T12:17:26;32.20;24.70
2751;DHT22;1383;48.362;10.908;2023-08-21T12:19:53;32.10;25.20
2751;DHT22;1383;48.362;10.908;2023-08-21T12:22:20;32.00;25.30
2751;DHT22;1383;48.362;10.908;2023-08-21T12:24:47;32.00;25.40
2751;DHT22;1383;48.362;10.908;2023-08-21T12:27:14;32.00;25.50
2751;DHT22;1383;48.362;10.908;2023-08-21T12:29:40;32.10;25.90
2751;DHT22;1383;48.362;10.908;2023-08-21T12:32:11;32.20;25.90
2751;DHT22;1383;48.362;10.908;2023-08-21T12:34:37;32.30;26.20
2751;DHT22;1383;48.362;10.908;2023-08-21T12:37:04;32.30;25.90
2751;DHT22;1383;48.362;10.908;2023-08-21T12:39:31;32.30;26.00
2751;DHT22;1383;48.362;10.908;2023-08-21T12:41:59;32.40;25.80
2751;DHT22;1383;48.362;10.908;2023-08-21T12:44:26;32.50;26.30
2751;DHT22;1383;48.362;10.908;2023-08-21T12:46:52;32.40;25.90
2751;DHT22;1383;48.362;10.908;2023-08-21T12:49:19;32.50;25.40
2751;DHT22;1383;48.362;10.908;2023-08-21T12:51:46;32.60;25.80
2751;DHT22;1383;48.362;10.908;2023-08-21T12:54:13;32.60;25.40
2751;DHT22;1383;48.362;10.908;2023-08-21T12:56:40;32.60;25.30
2751;DHT22;1383;48.362;10.908;2023-08-21T12:59:07;32.80;25.00
2751;DHT22;1383;48.362;10.908;2023-08-21T13:01:34;32.90;24.80
2751;DHT22;1383;48.362;10.908;2023-08-21T13:04:02;32.90;24.90
2751;DHT22;1383;48.362;10.908;2023-08-21T13:06:30;32.90;24.00
2751;DHT22;1383;48.362;10.908;2023-08-21T13:08:56;32.90;24.70
2751;DHT22;1383;48.362;10.908;2023-08-21T13:11:23;33.00;24.80
2751;DHT22;1383;48.362;10.908;2023-08-21T13:13:50;33.00;23.60
2751;DHT22;1383;48.362;10.908;2023-08-21T13:16:17;33.10;24.10
2751;DHT22;1383;48.362;10.908;2023-08-21T13:18:44;33.20;23.20
2751;DHT22;1383;48.362;10.908;2023-08-21T13:21:11;33.40;21.80
2751;DHT22;1383;48.362;10.908;2023-08-21T13:23:38;33.40;21.30
2751;DHT22;1383;48.362;10.908;2023-08-21T13:26:05;33.50;21.20
2751;DHT22;1383;48.362;10.908;2023-08-21T13:28:32;33.50;21.20
2751;DHT22;1383;48.362;10.908;2023-08-21T13:31:00;33.50;21.90
2751;DHT22;1383;48.362;10.908;2023-08-21T13:33:27;33.60;22.30
2751;DHT22;1383;48.362;10.908;2023-08-21T13:35:55;33.60;22.70
2751;DHT22;1383;48.362;10.908;2023-08-21T13:38:24;33.60;22.50
2751;DHT22;1383;48.362;10.908;2023-08-21T13:40:51;33.70;22.70
2751;DHT22;1383;48.362;10.908;2023-08-21T13:43:18;33.70;22.80
2751;DHT22;1383;48.362;10.908;2023-08-21T13:45:47;33.70;22.50
2751;DHT22;1383;48.362;10.908;2023-08-21T13:48:15;33.70;22.50
2751;DHT22;1383;48.362;10.908;2023-08-21T13:50:43;33.70;22.30
2751;DHT22;1383;48.362;10.908;2023-08-21T13:53:09;33.80;21.70
2751;DHT22;1383;48.362;10.908;2023-08-21T13:55:36;33.80;21.80
2751;DHT22;1383;48.362;10.908;2023-08-21T13:58:04;33.80;21.50
2751;DHT22;1383;48.362;10.908;2023-08-21T14:00:31;33.80;21.50
2751;DHT22;1383;48.362;10.908;2023-08-21T14:02:58;33.90;20.60
2751;DHT22;1383;48.362;10.908;2023-08-21T14:05:25;33.90;20.70
2751;DHT22;1383;48.362;10.908;2023-08-21T14:07:54;33.80;21.90
2751;DHT22;1383;48.362;10.908;2023-08-21T14:10:21;33.80;20.90
2751;DHT22;1383;48.362;10.908;2023-08-21T14:12:48;33.80;20.80
2751;DHT22;1383;48.362;10.908;2023-08-21T14:15:15;33.80;21.00
2751;DHT22;1383;48.362;10.908;2023-08-21T14:17:44;33.90;21.30
2751;DHT22;1383;48.362;10.908;2023-08-21T14:20:11;33.90;21.60
2751;DHT22;1383;48.362;10.908;2023-08-21T14:22:38;33.90;21.70
2751;DHT22;1383;48.362;10.908;2023-08-21T14:25:05;33.90;22.00
2751;DHT22;1383;48.362;10.908;2023-08-21T14:27:33;34.00;21.60
2751;DHT22;1383;48.362;10.908;2023-08-21T14:30:01;34.10;21.20
2751;DHT22;1383;48.362;10.908;2023-08-21T14:32:28;34.00;20.70
2751;DHT22;1383;48.362;10.908;2023-08-21T14:34:55;33.90;20.70
2751;DHT22;1383;48.362;10.908;2023-08-21T14:37:22;33.90;20.60
2751;DHT22;1383;48.362;10.908;2023-08-21T14:39:50;33.90;20.80
2751;DHT22;1383;48.362;10.908;2023-08-21T14:42:17;34.00;21.00
2751;DHT22;1383;48.362;10.908;2023-08-21T14:44:44;34.10;21.60
2751;DHT22;1383;48.362;10.908;2023-08-21T14:47:11;34.10;22.00
2751;DHT22;1383;48.362;10.908;2023-08-21T14:49:38;34.00;21.70
2751;DHT22;1383;48.362;10.908;2023-08-21T14:52:05;34.00;21.60
2751;DHT22;1383;48.362;10.908;2023-08-21T14:54:34;34.00;21.60
2751;DHT22;1383;48.362;10.908;2023-08-21T14:57:03;34.10;21.50
2751;DHT22;1383;48.362;10.908;2023-08-21T14:59:30;34.10;21.20
2751;DHT22;1383;48.362;10.908;2023-08-21T15:01:58;34.10;21.10
2751;DHT22;1383;48.362;10.908;2023-08-21T15:04:44;34.00;21.10
2751;DHT22;1383;48.362;10.908;2023-08-21T15:07:18;34.00;20.90
2751;DHT22;1383;48.362;10.908;2023-08-21T15:09:45;34.00;20.50
2751;DHT22;1383;48.362;10.908;2023-08-21T15:12:15;34.00;19.90
2751;DHT22;1383;48.362;10.908;2023-08-21T15:14:43;34.00;19.80
2751;DHT22;1383;48.362;10.908;2023-08-21T15:17:11;33.90;19.80
2751;DHT22;1383;48.362;10.908;2023-08-21T15:28:17;33.80;19.50
2751;DHT22;1383;48.362;10.908;2023-08-21T15:32:24;33.70;19.10
2751;DHT22;1383;48.362;10.908;2023-08-21T15:35:27;33.60;20.40
2751;DHT22;1383;48.362;10.908;2023-08-21T15:54:30;33.30;21.30
2751;DHT22;1383;48.362;10.908;2023-08-21T15:56:57;33.20;21.70
2751;DHT22;1383;48.362;10.908;2023-08-21T15:59:24;33.30;22.00
2751;DHT22;1383;48.362;10.908;2023-08-21T16:01:51;33.30;21.70
2751;DHT22;1383;48.362;10.908;2023-08-21T16:04:18;33.30;21.90
2751;DHT22;1383;48.362;10.908;2023-08-21T16:06:45;33.30;22.00
2751;DHT22;1383;48.362;10.908;2023-08-21T16:09:13;33.30;22.50
2751;DHT22;1383;48.362;10.908;2023-08-21T16:11:40;33.20;22.80
2751;DHT22;1383;48.362;10.908;2023-08-21T16:14:07;33.20;22.90
2751;DHT22;1383;48.362;10.908;2023-08-21T16:16:34;33.10;22.70
2751;DHT22;1383;48.362;10.908;2023-08-21T16:19:02;33.10;22.70
2751;DHT22;1383;48.362;10.908;2023-08-21T16:21:29;33.10;22.80
2751;DHT22;1383;48.362;10.908;2023-08-21T16:23:57;33.10;22.30
2751;DHT22;1383;48.362;10.908;2023-08-21T16:26:24;33.00;23.10
2751;DHT22;1383;48.362;10.908;2023-08-21T16:28:51;32.90;25.00
2751;DHT22;1383;48.362;10.908;2023-08-21T16:31:18;32.80;25.50
2751;DHT22;1383;48.362;10.908;2023-08-21T16:33:45;32.60;25.70
2751;DHT22;1383;48.362;10.908;2023-08-21T16:36:12;32.70;26.00
2751;DHT22;1383;48.362;10.908;2023-08-21T16:38:39;32.60;26.20
2751;DHT22;1383;48.362;10.908;2023-08-21T16:41:05;32.40;26.20
2751;DHT22;1383;48.362;10.908;2023-08-21T16:43:33;32.30;26.50
2751;DHT22;1383;48.362;10.908;2023-08-21T16:46:00;32.30;26.70
2751;DHT22;1383;48.362;10.908;2023-08-21T16:48:27;32.10;26.90
2751;DHT22;1383;48.362;10.908;2023-08-21T16:50:53;32.10;27.10
2751;DHT22;1383;48.362;10.908;2023-08-21T16:53:20;32.00;27.10
2751;DHT22;1383;48.362;10.908;2023-08-21T16:55:49;31.90;27.10
2751;DHT22;1383;48.362;10.908;2023-08-21T16:58:17;31.90;27.20
2751;DHT22;1383;48.362;10.908;2023-08-21T17:00:44;31.90;27.30
2751;DHT22;1383;48.362;10.908;2023-08-21T17:03:11;31.90;27.10
2751;DHT22;1383;48.362;10.908;2023-08-21T17:05:38;31.90;27.00
2751;DHT22;1383;48.362;10.908;2023-08-21T17:08:05;31.90;26.80
2751;DHT22;1383;48.362;10.908;2023-08-21T17:10:32;31.80;26.90
2751;DHT22;1383;48.362;10.908;2023-08-21T17:13:02;31.80;27.10
2751;DHT22;1383;48.362;10.908;2023-08-21T17:15:30;31.80;27.10
2751;DHT22;1383;48.362;10.908;2023-08-21T17:17:57;31.70;27.40
2751;DHT22;1383;48.362;10.908;2023-08-21T17:20:24;31.70;28.80
2751;DHT22;1383;48.362;10.908;2023-08-21T17:22:53;31.70;27.90
2751;DHT22;1383;48.362;10.908;2023-08-21T17:25:20;31.70;28.00
2751;DHT22;1383;48.362;10.908;2023-08-21T17:27:47;31.70;28.10
2751;DHT22;1383;48.362;10.908;2023-08-21T17:30:17;31.50;27.90
2751;DHT22;1383;48.362;10.908;2023-08-21T17:32:44;31.60;28.30
2751;DHT22;1383;48.362;10.908;2023-08-21T17:35:11;31.50;28.70
2751;DHT22;1383;48.362;10.908;2023-08-21T17:37:39;31.50;28.30
2751;DHT22;1383;48.362;10.908;2023-08-21T17:40:07;31.40;28.70
2751;DHT22;1383;48.362;10.908;2023-08-21T17:42:34;31.40;29.10
2751;DHT22;1383;48.362;10.908;2023-08-21T17:45:02;31.30;29.50
2751;DHT22;1383;48.362;10.908;2023-08-21T17:47:31;31.20;29.80
2751;DHT22;1383;48.362;10.908;2023-08-21T17:49:58;31.10;30.00
2751;DHT22;1383;48.362;10.908;2023-08-21T17:52:25;31.10;30.10
2751;DHT22;1383;48.362;10.908;2023-08-21T17:54:52;31.10;30.50
2751;DHT22;1383;48.362;10.908;2023-08-21T17:57:19;31.00;30.30
2751;DHT22;1383;48.362;10.908;2023-08-21T17:59:48;31.00;30.70
2751;DHT22;1383;48.362;10.908;2023-08-21T18:02:15;30.90;30.90
2751;DHT22;1383;48.362;10.908;2023-08-21T18:04:53;30.90;31.00
2751;DHT22;1383;48.362;10.908;2023-08-21T18:07:20;30.90;31.20
2751;DHT22;1383;48.362;10.908;2023-08-21T18:09:47;30.90;31.40
2751;DHT22;1383;48.362;10.908;2023-08-21T18:12:14;30.80;31.60
2751;DHT22;1383;48.362;10.908;2023-08-21T18:14:40;30.90;31.80
2751;DHT22;1383;48.362;10.908;2023-08-21T18:17:07;30.80;31.70
2751;DHT22;1383;48.362;10.908;2023-08-21T18:19:40;30.80;32.10
2751;DHT22;1383;48.362;10.908;2023-08-21T18:22:14;30.80;32.10
2751;DHT22;1383;48.362;10.908;2023-08-21T18:24:41;30.80;32.20
2751;DHT22;1383;48.362;10.908;2023-08-21T18:27:08;30.80;32.40
2751;DHT22;1383;48.362;10.908;2023-08-21T18:29:36;30.70;32.70
2751;DHT22;1383;48.362;10.908;2023-08-21T18:32:06;30.70;32.90
2751;DHT22;1383;48.362;10.908;2023-08-21T18:34:36;30.70;33.10
2751;DHT22;1383;48.362;10.908;2023-08-21T18:37:07;30.70;34.00
2751;DHT22;1383;48.362;10.908;2023-08-21T18:39:34;30.70;33.70